createdAt,value
2019-02-06T00:00:26.266Z,5.838
2019-02-06T00:03:15.738Z,2.900
2019-02-06T00:06:20.433Z,4.062
2019-02-06T00:09:15.454Z,4.537
2019-02-06T00:12:14.996Z,4.400
2019-02-06T00:15:15.920Z,4.025
2019-02-06T00:18:15.931Z,1.350
2019-02-06T00:21:15.270Z,3.388
2019-02-06T00:24:15.350Z,5.200
2019-02-06T00:27:14.962Z,5.225
2019-02-06T00:30:15.438Z,4.588
2019-02-06T00:33:15.558Z,4.975
2019-02-06T00:36:15.063Z,2.038
2019-02-06T00:39:15.503Z,2.562
2019-02-06T00:42:15.123Z,6.000
2019-02-06T00:45:16.728Z,1.438
2019-02-06T00:48:14.945Z,8.212
2019-02-06T00:51:15.493Z,2.325
2019-02-06T00:54:15.306Z,4.188
2019-02-06T00:57:15.793Z,5.700
2019-02-06T01:00:15.267Z,2.337
2019-02-06T01:03:15.780Z,3.650
2019-02-06T01:06:15.310Z,6.450
2019-02-06T01:09:14.992Z,3.025
2019-02-06T01:12:15.487Z,3.688
2019-02-06T01:15:15.003Z,2.150
2019-02-06T01:18:15.413Z,3.462
2019-02-06T01:21:15.867Z,3.500
2019-02-06T01:24:15.647Z,4.037
2019-02-06T01:27:15.663Z,2.612
2019-02-06T01:30:15.185Z,2.637
2019-02-06T01:33:15.307Z,3.750
2019-02-06T01:36:15.815Z,2.025
2019-02-06T01:39:14.952Z,2.200
2019-02-06T01:42:15.562Z,1.512
2019-02-06T01:45:15.088Z,4.050
2019-02-06T01:48:15.128Z,3.350
2019-02-06T01:51:15.638Z,2.088
2019-02-06T01:54:15.325Z,3.600
2019-02-06T01:57:15.815Z,2.462
2019-02-06T02:00:15.240Z,4.963
2019-02-06T02:03:15.474Z,2.950
2019-02-06T02:06:15.218Z,2.700
2019-02-06T02:09:14.931Z,3.712
2019-02-06T02:12:15.505Z,1.600
2019-02-06T02:15:15.526Z,5.425
2019-02-06T02:18:15.519Z,3.562
2019-02-06T02:21:14.931Z,3.425
2019-02-06T02:24:15.533Z,2.888
2019-02-06T02:27:15.035Z,3.612
2019-02-06T02:30:15.561Z,4.525
2019-02-06T02:33:15.063Z,5.200
2019-02-06T02:36:16.569Z,3.475
2019-02-06T02:39:15.267Z,5.925
2019-02-06T02:42:15.021Z,3.438
2019-02-06T02:45:15.470Z,3.688
2019-02-06T02:48:15.294Z,7.012
2019-02-06T02:51:15.700Z,7.625
2019-02-06T02:54:15.358Z,5.150
2019-02-06T02:57:15.691Z,3.263
2019-02-06T03:00:15.267Z,7.238
2019-02-06T03:03:15.833Z,7.687
2019-02-06T03:06:27.161Z,3.163
2019-02-06T03:33:16.045Z,3.725
2019-02-06T03:36:15.679Z,3.450
2019-02-06T03:39:15.300Z,2.200
2019-02-06T03:42:15.740Z,3.675
2019-02-06T03:45:15.479Z,4.362
2019-02-06T03:48:15.106Z,2.888
2019-02-06T03:51:15.831Z,7.088
2019-02-06T03:54:15.752Z,4.287
2019-02-06T03:57:15.335Z,4.275
2019-02-06T04:00:15.087Z,2.300
2019-02-06T04:03:15.644Z,1.575
2019-02-06T04:06:15.501Z,1.575
2019-02-06T04:09:15.074Z,4.075
2019-02-06T04:12:15.738Z,2.438
2019-02-06T04:15:15.371Z,4.988
2019-02-06T04:18:14.939Z,4.887
2019-02-06T04:21:15.369Z,3.363
2019-02-06T04:24:15.903Z,2.475
2019-02-06T04:27:15.747Z,2.475
2019-02-06T04:30:15.234Z,2.938
2019-02-06T04:33:15.669Z,3.800
2019-02-06T04:36:15.556Z,3.350
2019-02-06T04:39:15.101Z,4.675
2019-02-06T04:42:15.662Z,3.000
2019-02-06T04:45:15.313Z,3.062
2019-02-06T04:48:14.988Z,4.013
2019-02-06T04:51:15.517Z,1.712
2019-02-06T04:54:15.025Z,3.050
2019-02-06T04:57:15.692Z,4.162
2019-02-06T05:00:15.195Z,2.725
2019-02-06T05:03:15.949Z,5.200
2019-02-06T05:06:15.521Z,3.138
2019-02-06T05:09:15.130Z,2.188
2019-02-06T05:12:15.772Z,3.837
2019-02-06T05:15:15.194Z,5.750
2019-02-06T05:18:15.922Z,3.650
2019-02-06T05:21:15.419Z,3.938
2019-02-06T05:24:14.942Z,4.112
2019-02-06T05:27:15.122Z,3.838
2019-02-06T05:30:15.602Z,3.538
2019-02-06T05:33:15.235Z,5.875
2019-02-06T05:36:15.633Z,3.850
2019-02-06T05:39:15.116Z,6.438
2019-02-06T05:42:15.728Z,4.512
2019-02-06T05:45:15.625Z,4.075
2019-02-06T05:48:15.238Z,8.625
2019-02-06T05:51:15.819Z,2.950
2019-02-06T05:54:15.351Z,3.925
2019-02-06T05:57:15.998Z,2.012
2019-02-06T06:00:16.120Z,4.625
2019-02-06T06:03:15.228Z,2.312
2019-02-06T06:06:15.284Z,5.062
2019-02-06T06:09:15.800Z,3.500
2019-02-06T06:12:15.575Z,3.825
2019-02-06T06:15:15.011Z,5.900
2019-02-06T06:18:15.709Z,2.987
2019-02-06T06:21:15.351Z,6.663
2019-02-06T06:24:14.866Z,3.675
2019-02-06T06:27:15.421Z,3.400
2019-02-06T06:30:15.838Z,8.163
2019-02-06T06:33:15.646Z,4.562
2019-02-06T06:36:20.196Z,4.938
2019-02-06T06:39:15.192Z,6.525
2019-02-06T06:42:16.289Z,4.638
2019-02-06T06:45:15.446Z,4.787
2019-02-06T06:48:15.370Z,4.688
2019-02-06T06:51:15.204Z,3.500
2019-02-06T06:54:15.928Z,2.825
2019-02-06T06:57:15.409Z,3.787
2019-02-06T07:00:15.858Z,2.800
2019-02-06T07:03:15.076Z,4.675
2019-02-06T07:06:15.098Z,4.588
2019-02-06T07:09:15.781Z,7.188
2019-02-06T07:12:15.330Z,3.588
2019-02-06T07:15:15.632Z,5.862
2019-02-06T07:18:15.006Z,6.388
2019-02-06T07:21:15.007Z,2.138
2019-02-06T07:24:15.732Z,3.025
2019-02-06T07:27:15.482Z,4.388
2019-02-06T07:30:15.527Z,5.888
2019-02-06T07:33:15.142Z,5.037
2019-02-06T07:36:15.694Z,3.100
2019-02-06T07:39:15.328Z,6.538
2019-02-06T07:42:14.949Z,3.288
2019-02-06T07:45:15.811Z,2.862
2019-02-06T07:48:15.616Z,7.337
2019-02-06T07:51:15.334Z,7.387
2019-02-06T07:54:14.846Z,4.275
2019-02-06T07:57:15.635Z,5.438
2019-02-06T08:00:15.143Z,8.225
2019-02-06T08:03:15.922Z,2.725
2019-02-06T08:06:15.524Z,2.825
2019-02-06T08:09:15.422Z,5.938
2019-02-06T08:12:15.087Z,4.138
2019-02-06T08:15:15.718Z,6.188
2019-02-06T08:18:15.534Z,6.475
2019-02-06T08:21:15.180Z,3.288
2019-02-06T08:24:15.297Z,5.662
2019-02-06T08:27:14.889Z,13.200
2019-02-06T08:30:15.616Z,7.375
2019-02-06T08:33:15.457Z,8.713
2019-02-06T08:36:15.192Z,5.450
2019-02-06T08:39:15.680Z,13.250
2019-02-06T08:42:15.282Z,6.800
2019-02-06T08:45:15.286Z,10.488
2019-02-06T08:48:15.246Z,4.875
2019-02-06T08:51:15.012Z,6.500
2019-02-06T08:54:15.184Z,9.062
2019-02-06T08:57:15.767Z,5.638
2019-02-06T09:00:15.610Z,7.512
2019-02-06T09:03:15.092Z,6.162
2019-02-06T09:06:15.644Z,9.062
2019-02-06T09:09:15.456Z,18.062
2019-02-06T09:12:14.894Z,13.725
2019-02-06T09:15:15.691Z,14.137
2019-02-06T09:18:15.429Z,12.875
2019-02-06T09:21:15.164Z,9.188
2019-02-06T09:24:15.376Z,14.363
2019-02-06T09:27:15.882Z,12.287
2019-02-06T09:30:15.614Z,10.275
2019-02-06T09:33:15.141Z,10.363
2019-02-06T09:36:15.067Z,11.550
2019-02-06T09:39:15.744Z,15.238
2019-02-06T09:42:15.172Z,9.338
2019-02-06T09:45:15.288Z,7.487
2019-02-06T09:48:15.048Z,16.163
2019-02-06T09:51:15.546Z,8.012
2019-02-06T09:54:15.042Z,8.100
2019-02-06T09:57:15.525Z,3.763
2019-02-06T10:00:15.188Z,7.588
2019-02-06T10:03:15.100Z,14.050
2019-02-06T10:06:15.847Z,12.050
2019-02-06T10:09:22.658Z,6.825
2019-02-06T10:12:15.273Z,10.613
2019-02-06T10:15:15.848Z,15.675
2019-02-06T10:18:15.782Z,11.300
2019-02-06T10:21:15.452Z,12.350
2019-02-06T10:24:15.350Z,11.312
2019-02-06T10:27:14.943Z,10.912
2019-02-06T10:30:15.571Z,12.575
2019-02-06T10:33:15.116Z,7.888
2019-02-06T10:36:15.782Z,13.338
2019-02-06T10:39:15.830Z,12.188
2019-02-06T10:42:15.555Z,9.062
2019-02-06T10:45:15.362Z,9.175
2019-02-06T10:48:15.437Z,12.537
2019-02-06T10:51:15.318Z,18.713
2019-02-06T10:54:15.165Z,9.988
2019-02-06T10:57:15.666Z,11.912
2019-02-06T11:00:15.444Z,10.037
2019-02-06T11:03:15.734Z,14.262
2019-02-06T11:06:15.409Z,8.312
2019-02-06T11:09:15.637Z,9.838
2019-02-06T11:12:15.330Z,10.238
2019-02-06T11:15:15.300Z,9.200
2019-02-06T11:18:15.771Z,16.925
2019-02-06T11:21:15.503Z,9.663
2019-02-06T11:24:15.449Z,9.488
2019-02-06T11:27:15.377Z,11.812
2019-02-06T11:30:15.347Z,8.450
2019-02-06T11:33:15.176Z,11.288
2019-02-06T11:36:23.895Z,6.787
2019-02-06T11:39:15.029Z,16.600
2019-02-06T11:42:15.969Z,9.038
2019-02-06T11:45:15.631Z,7.938
2019-02-06T11:48:15.273Z,12.700
2019-02-06T11:51:15.936Z,16.613
2019-02-06T11:54:15.481Z,10.000
2019-02-06T11:57:15.525Z,15.675
2019-02-06T12:00:15.388Z,9.037
2019-02-06T12:03:15.443Z,13.188
2019-02-06T12:06:15.159Z,13.575
2019-02-06T12:09:15.599Z,16.337
2019-02-06T12:12:15.636Z,11.562
2019-02-06T12:15:15.207Z,13.000
2019-02-06T12:18:15.175Z,15.150
2019-02-06T12:21:17.877Z,10.887
2019-02-06T12:24:15.904Z,12.037
2019-02-06T12:27:15.924Z,11.825
2019-02-06T12:30:15.480Z,15.637
2019-02-06T12:33:15.648Z,15.750
2019-02-06T12:36:15.987Z,13.637
2019-02-06T12:39:15.651Z,13.200
2019-02-06T12:42:15.803Z,17.538
2019-02-06T12:45:15.422Z,13.337
2019-02-06T12:48:15.166Z,12.675
2019-02-06T12:51:15.755Z,16.275
2019-02-06T12:54:15.241Z,13.738
2019-02-06T12:57:15.843Z,13.475
2019-02-06T13:00:14.970Z,16.225
2019-02-06T13:03:15.851Z,14.787
2019-02-06T13:06:15.485Z,16.325
2019-02-06T13:09:15.006Z,19.900
2019-02-06T13:12:15.703Z,14.250
2019-02-06T13:15:15.325Z,10.738
2019-02-06T13:18:15.029Z,11.012
2019-02-06T13:21:15.444Z,15.713
2019-02-06T13:24:15.116Z,16.913
2019-02-06T13:27:15.443Z,17.438
2019-02-06T13:30:15.047Z,13.463
2019-02-06T13:33:15.545Z,11.250
2019-02-06T13:36:15.372Z,14.262
2019-02-06T13:39:14.983Z,14.900
2019-02-06T13:42:14.938Z,19.288
2019-02-06T13:45:15.681Z,14.787
2019-02-06T13:48:15.730Z,15.425
2019-02-06T13:51:19.060Z,13.275
2019-02-06T13:54:15.465Z,18.337
2019-02-06T13:57:15.635Z,12.875
2019-02-06T14:00:15.239Z,14.312
2019-02-06T14:03:15.045Z,15.275
2019-02-06T14:06:15.507Z,14.675
2019-02-06T14:09:22.832Z,14.938
2019-02-06T14:12:15.669Z,17.938
2019-02-06T14:15:15.355Z,21.512
2019-02-06T14:18:15.266Z,15.850
2019-02-06T14:21:15.757Z,18.312
2019-02-06T14:24:14.876Z,18.988
2019-02-06T14:27:15.711Z,13.338
2019-02-06T14:30:15.652Z,14.712
2019-02-06T14:33:15.353Z,19.438
2019-02-06T14:36:15.041Z,13.938
2019-02-06T14:39:15.458Z,10.975
2019-02-06T14:42:14.974Z,8.812
2019-02-06T14:45:15.764Z,15.037
2019-02-06T14:48:17.808Z,21.025
2019-02-06T14:51:15.530Z,25.425
2019-02-06T14:54:15.337Z,16.950
2019-02-06T14:57:15.263Z,12.988
2019-02-06T15:00:14.834Z,8.000
2019-02-06T15:03:15.549Z,14.100
2019-02-06T15:06:15.553Z,15.475
2019-02-06T15:09:15.674Z,21.737
2019-02-06T15:12:15.745Z,26.837
2019-02-06T15:15:15.256Z,12.037
2019-02-06T15:18:15.670Z,12.263
2019-02-06T15:21:15.702Z,15.737
2019-02-06T15:24:15.441Z,19.850
2019-02-06T15:27:15.537Z,9.287
2019-02-06T15:30:15.756Z,12.325
2019-02-06T15:33:15.389Z,15.850
2019-02-06T15:36:15.474Z,14.100
2019-02-06T15:39:15.632Z,12.925
2019-02-06T15:42:15.308Z,14.025
2019-02-06T15:45:15.184Z,13.175
2019-02-06T15:48:15.406Z,18.200
2019-02-06T15:51:15.243Z,13.650
2019-02-06T15:54:15.361Z,20.812
2019-02-06T15:57:15.527Z,10.825
2019-02-06T16:00:15.178Z,15.038
2019-02-06T16:03:14.873Z,18.300
2019-02-06T16:06:14.977Z,10.850
2019-02-06T16:09:15.330Z,21.663
2019-02-06T16:12:15.232Z,10.900
2019-02-06T16:15:15.700Z,12.575
2019-02-06T16:18:16.747Z,12.688
2019-02-06T16:21:14.899Z,13.462
2019-02-06T16:24:15.885Z,11.962
2019-02-06T16:27:15.088Z,12.337
2019-02-06T16:30:15.596Z,11.250
2019-02-06T16:33:15.808Z,12.675
2019-02-06T16:36:15.463Z,11.113
2019-02-06T16:39:15.608Z,14.925
2019-02-06T16:42:15.396Z,10.250
2019-02-06T16:45:15.439Z,16.762
2019-02-06T16:48:15.009Z,15.013
2019-02-06T16:51:14.946Z,5.575
2019-02-06T16:54:14.974Z,5.612
2019-02-06T16:57:15.156Z,8.688
2019-02-06T17:00:15.632Z,5.100
2019-02-06T17:03:15.791Z,6.162
2019-02-06T17:06:15.276Z,8.087
2019-02-06T17:09:15.373Z,5.162
2019-02-06T17:12:15.263Z,4.037
2019-02-06T17:15:15.766Z,5.600
2019-02-06T17:18:15.162Z,6.537
2019-02-06T17:21:15.260Z,7.287
2019-02-06T17:24:15.656Z,6.162
2019-02-06T17:27:15.105Z,7.875
2019-02-06T17:30:15.622Z,7.400
2019-02-06T17:33:15.225Z,6.812
2019-02-06T17:36:15.470Z,7.788
2019-02-06T17:39:23.902Z,30.650
2019-02-06T17:42:16.017Z,27.175
2019-02-06T17:45:15.202Z,9.275
2019-02-06T17:48:15.842Z,10.250
2019-02-06T17:51:15.679Z,7.250
2019-02-06T17:54:15.616Z,7.000
2019-02-06T17:57:15.315Z,6.487
2019-02-06T18:00:15.757Z,6.787
2019-02-06T18:03:15.394Z,11.312
2019-02-06T18:06:15.331Z,7.400
2019-02-06T18:09:14.939Z,5.675
2019-02-06T18:12:25.980Z,6.637
2019-02-06T18:15:15.356Z,13.438
2019-02-06T18:18:15.177Z,25.163
2019-02-06T18:21:15.819Z,9.475
2019-02-06T18:24:15.489Z,8.500
2019-02-06T18:27:15.189Z,7.725
2019-02-06T18:30:15.252Z,5.588
2019-02-06T18:33:15.571Z,6.237
2019-02-06T18:36:15.758Z,9.250
2019-02-06T18:39:15.917Z,7.587
2019-02-06T18:42:15.650Z,10.050
2019-02-06T18:45:14.955Z,6.875
2019-02-06T18:48:14.901Z,7.625
2019-02-06T18:51:15.331Z,8.500
2019-02-06T18:54:15.135Z,12.300
2019-02-06T18:57:15.395Z,8.075
2019-02-06T19:00:15.449Z,20.713
2019-02-06T19:03:15.432Z,14.438
2019-02-06T19:06:15.381Z,7.787
2019-02-06T19:09:17.462Z,17.363
2019-02-06T19:12:15.877Z,9.050
2019-02-06T19:15:15.587Z,8.012
2019-02-06T19:18:14.935Z,10.575
2019-02-06T19:21:15.806Z,6.425
2019-02-06T19:24:17.799Z,10.012
2019-02-06T19:27:15.198Z,12.400
2019-02-06T19:30:14.936Z,10.350
2019-02-06T19:33:17.227Z,7.800
2019-02-06T19:36:15.154Z,9.100
2019-02-06T19:39:15.132Z,7.275
2019-02-06T19:42:15.792Z,5.537
2019-02-06T19:45:15.533Z,7.387
2019-02-06T19:48:16.078Z,4.787
2019-02-06T19:51:15.095Z,10.475
2019-02-06T19:54:15.546Z,8.562
2019-02-06T19:57:15.310Z,13.113
2019-02-06T20:00:15.203Z,13.713
2019-02-06T20:03:15.791Z,8.887
2019-02-06T20:06:15.698Z,8.200
2019-02-06T20:09:15.626Z,21.337
2019-02-06T20:12:15.180Z,15.625
2019-02-06T20:15:15.539Z,16.663
2019-02-06T20:18:15.703Z,12.350
2019-02-06T20:21:15.788Z,8.188
2019-02-06T20:24:15.181Z,13.813
2019-02-06T20:27:15.855Z,8.550
2019-02-06T20:30:16.023Z,7.050
2019-02-06T20:33:15.796Z,13.363
2019-02-06T20:36:15.495Z,14.925
2019-02-06T20:39:15.317Z,9.025
2019-02-06T20:42:15.169Z,8.213
2019-02-06T20:45:15.149Z,6.588
2019-02-06T20:48:14.994Z,7.088
2019-02-06T20:51:15.256Z,4.875
2019-02-06T20:54:14.998Z,11.850
2019-02-06T20:57:15.864Z,11.537
2019-02-06T21:00:15.222Z,4.850
2019-02-06T21:03:15.412Z,8.125
2019-02-06T21:06:15.304Z,9.787
2019-02-06T21:09:15.387Z,11.175
2019-02-06T21:12:15.008Z,13.037
2019-02-06T21:15:15.302Z,9.738
2019-02-06T21:18:15.381Z,19.587
2019-02-06T21:21:15.403Z,9.338
2019-02-06T21:24:15.478Z,10.562
2019-02-06T21:27:15.216Z,15.150
2019-02-06T21:30:15.305Z,9.863
2019-02-06T21:33:15.449Z,11.688
2019-02-06T21:36:15.373Z,12.850
2019-02-06T21:39:15.091Z,12.300
2019-02-06T21:42:15.709Z,11.387
2019-02-06T21:45:15.546Z,8.150
2019-02-06T21:48:15.421Z,6.550
2019-02-06T21:51:15.119Z,11.750
2019-02-06T21:54:15.783Z,9.887
2019-02-06T21:57:15.532Z,18.400
2019-02-06T22:00:15.149Z,20.913
2019-02-06T22:03:15.586Z,18.100
2019-02-06T22:06:15.241Z,14.550
2019-02-06T22:09:28.424Z,14.762
2019-02-06T22:12:15.514Z,6.000
2019-02-06T22:15:15.460Z,3.862
2019-02-06T22:18:14.908Z,7.175
2019-02-06T22:21:15.607Z,5.088
2019-02-06T22:24:15.245Z,12.088
2019-02-06T22:27:15.779Z,18.300
2019-02-06T22:30:15.859Z,12.762
2019-02-06T22:33:15.121Z,13.100
2019-02-06T22:36:14.902Z,15.025
2019-02-06T22:39:15.167Z,11.137
2019-02-06T22:42:17.502Z,8.900
2019-02-06T22:45:15.481Z,7.150
2019-02-06T22:48:15.227Z,9.600
2019-02-06T22:51:16.505Z,16.750
2019-02-06T22:54:15.520Z,13.887
2019-02-06T22:57:15.502Z,14.938
2019-02-06T23:00:24.032Z,19.337
2019-02-06T23:03:15.781Z,18.538
2019-02-06T23:06:15.242Z,13.725
2019-02-06T23:09:15.516Z,18.000
2019-02-06T23:12:15.387Z,16.637
2019-02-06T23:15:15.076Z,19.400
2019-02-06T23:18:15.696Z,15.875
2019-02-06T23:21:15.046Z,11.737
2019-02-06T23:24:15.797Z,8.850
2019-02-06T23:27:15.918Z,13.375
2019-02-06T23:30:15.841Z,13.575
2019-02-06T23:33:15.596Z,6.825
2019-02-06T23:36:15.247Z,15.863
2019-02-06T23:39:14.948Z,16.175
2019-02-06T23:42:15.249Z,16.837
2019-02-06T23:45:14.956Z,11.787
2019-02-06T23:48:15.890Z,19.238
2019-02-06T23:51:15.408Z,18.738
2019-02-06T23:54:15.914Z,5.775
2019-02-06T23:57:15.479Z,13.262
